Portada
METAR-TAF:

METAR-TAF

Aeroports :

Aeroport de Ouarzazate

Ouarzazate, Marroc

latitud: 30-56N, longitud: 006-54W, altitud: 1139 m

Observació

L'informe es va fer fa 28 minuts, a les 05:00 UTC
Vent 10 kt del Oest/Nord-Oest
Temperatura 13°C
Humitat 35%
Pressió 1020 hPa
Visibilitat 10 km o més
sense núvols per sota de 1500 mi sense presència de cumulonimbus.

METAR: GMMZ 140500Z 30010KT CAVOK 13/M02 Q1020 NOSIG

Hora: 05:28 (05:28 UTC)

Pronòstic

L'informe es va fer fa 6 hores i 28 minuts, a les 23:00 UTC
Pronòstic vàlid del 14 a les 00 UTC al 15 a les 06 UTC
Vent 24 kt del Oest/Nord-Oest
Visibilitat 10 km o més
sense núvols per sota de 1500 mi sense presència de cumulonimbus.
Evolucionant progressivament
l' 14 a les 18 UTC al 14 a les 20 UTC
Vent 2 kt amb direcció variable

TAF: GMMZ 132300Z 1400/1506 30024KT CAVOK BECMG 1418/1420 VRB02KT

Observacions i pronòstics meteorològics de més de 4000 aeroports (METAR i TAF).

Les estacions disponibles són els punts grocs i vermells al mapa.

Posi el ratolí al punt desitjat per veure el nom de l'estació.

Feu clic per veure les observacions i els pronòstics meteorològics.

Per canviar el mapa: feu clic els botons verds amb una creu de color negre per apropar; al botó verd amb un guió per allunyar la imatge; o en les fletxes verdes per a mapes adjacents.


METAR-TAF: